createdAt,value
2023-11-07T00:00:27.976Z,0.93
2023-11-07T00:02:55.264Z,0.50
2023-11-07T00:05:22.762Z,0.60
2023-11-07T00:07:49.964Z,0.50
2023-11-07T00:10:16.901Z,0.73
2023-11-07T00:12:44.390Z,0.40
2023-11-07T00:15:11.457Z,0.50
2023-11-07T00:17:38.472Z,0.80
2023-11-07T00:20:06.347Z,0.57
2023-11-07T00:22:34.369Z,0.60
2023-11-07T00:25:01.271Z,0.80
2023-11-07T00:27:29.148Z,0.57
2023-11-07T00:29:56.184Z,0.80
2023-11-07T00:32:23.106Z,0.60
2023-11-07T00:34:50.020Z,0.80
2023-11-07T00:37:16.993Z,0.50
2023-11-07T00:39:44.028Z,0.45
2023-11-07T00:42:10.975Z,0.77
2023-11-07T00:44:38.058Z,0.68
2023-11-07T00:47:05.234Z,0.65
2023-11-07T00:49:32.163Z,0.60
2023-11-07T00:52:00.837Z,0.60
2023-11-07T00:54:28.414Z,0.70
2023-11-07T00:56:55.620Z,0.70
2023-11-07T00:59:22.549Z,0.50
2023-11-07T01:01:49.398Z,0.60
2023-11-07T01:04:16.413Z,0.70
2023-11-07T01:06:43.526Z,0.70
2023-11-07T01:09:13.193Z,0.70
2023-11-07T01:11:41.249Z,0.60
2023-11-07T01:14:08.264Z,0.60
2023-11-07T01:16:35.323Z,0.80
2023-11-07T01:19:02.963Z,0.88
2023-11-07T01:21:30.015Z,0.50
2023-11-07T01:23:56.924Z,0.90
2023-11-07T01:26:23.864Z,0.50
2023-11-07T01:28:50.765Z,0.80
2023-11-07T01:31:17.709Z,0.70
2023-11-07T01:33:44.873Z,0.70
2023-11-07T01:36:11.874Z,0.50
2023-11-07T01:38:38.815Z,0.63
2023-11-07T01:41:06.017Z,0.60
2023-11-07T01:43:33.059Z,0.50
2023-11-07T01:46:04.156Z,0.50
2023-11-07T01:48:31.862Z,0.50
2023-11-07T01:50:59.724Z,0.32
2023-11-07T01:53:28.620Z,0.40
2023-11-07T01:55:57.412Z,0.60
2023-11-07T01:58:24.968Z,0.40
2023-11-07T02:00:55.212Z,0.68
2023-11-07T02:03:29.475Z,0.50
2023-11-07T02:05:57.094Z,0.50
2023-11-07T02:08:25.860Z,0.40
2023-11-07T02:10:53.296Z,0.90
2023-11-07T02:13:20.205Z,0.80
2023-11-07T02:15:47.199Z,0.73
2023-11-07T02:18:14.618Z,0.55
2023-11-07T02:20:41.991Z,0.55
2023-11-07T02:23:30.424Z,0.80
2023-11-07T02:25:57.810Z,0.60
2023-11-07T02:28:25.498Z,0.90
2023-11-07T02:30:52.639Z,0.50
2023-11-07T02:33:21.796Z,0.55
2023-11-07T02:35:49.043Z,0.60
2023-11-07T02:38:17.958Z,0.70
2023-11-07T02:40:45.237Z,0.50
2023-11-07T02:43:13.230Z,0.70
2023-11-07T02:45:40.188Z,0.50
2023-11-07T02:48:07.685Z,0.55
2023-11-07T02:50:34.830Z,0.60
2023-11-07T02:53:01.966Z,0.45
2023-11-07T02:55:29.804Z,0.52
2023-11-07T02:57:56.885Z,0.70
2023-11-07T03:00:23.836Z,0.30
2023-11-07T03:02:50.806Z,0.40
2023-11-07T03:05:17.884Z,0.75
2023-11-07T03:07:44.782Z,0.43
2023-11-07T03:10:11.694Z,0.68
2023-11-07T03:12:39.342Z,0.40
2023-11-07T03:15:06.861Z,0.52
2023-11-07T03:17:34.446Z,0.40
2023-11-07T03:20:01.509Z,0.43
2023-11-07T03:22:29.953Z,0.50
2023-11-07T03:24:56.925Z,0.40
2023-11-07T03:27:23.867Z,0.32
2023-11-07T03:29:50.815Z,0.52
2023-11-07T03:32:19.709Z,0.50
2023-11-07T03:34:46.622Z,0.60
2023-11-07T03:37:13.784Z,0.22
2023-11-07T03:39:40.699Z,0.50
2023-11-07T03:42:07.839Z,0.70
2023-11-07T03:44:36.198Z,0.70
2023-11-07T03:47:07.088Z,0.60
2023-11-07T03:49:34.524Z,0.65
2023-11-07T03:52:01.559Z,0.40
2023-11-07T03:54:28.817Z,0.70
2023-11-07T03:56:55.729Z,0.80
2023-11-07T03:59:22.761Z,0.65
2023-11-07T04:01:49.750Z,0.43
2023-11-07T04:04:16.756Z,0.60
2023-11-07T04:06:43.647Z,0.40
2023-11-07T04:09:11.076Z,0.50
2023-11-07T04:11:38.077Z,0.50
2023-11-07T04:14:05.045Z,0.80
2023-11-07T04:16:31.945Z,0.50
2023-11-07T04:19:00.409Z,0.63
2023-11-07T04:21:28.771Z,0.28
2023-11-07T04:23:55.733Z,0.32
2023-11-07T04:26:22.796Z,0.50
2023-11-07T04:28:49.766Z,0.40
2023-11-07T04:31:16.906Z,0.25
2023-11-07T04:33:44.077Z,0.50
2023-11-07T04:36:11.233Z,0.65
2023-11-07T04:38:38.386Z,0.70
2023-11-07T04:41:06.004Z,0.45
2023-11-07T04:43:37.224Z,0.45
2023-11-07T04:46:05.204Z,0.40
2023-11-07T04:48:35.507Z,0.50
2023-11-07T04:51:03.355Z,0.50
2023-11-07T04:53:30.571Z,0.60
2023-11-07T04:55:57.640Z,0.40
2023-11-07T04:58:26.634Z,0.77
2023-11-07T05:00:56.593Z,0.32
2023-11-07T05:03:29.959Z,0.40
2023-11-07T05:06:03.985Z,0.50
2023-11-07T05:08:30.926Z,0.50
2023-11-07T05:10:57.872Z,0.50
2023-11-07T05:13:24.772Z,0.50
2023-11-07T05:15:51.838Z,0.60
2023-11-07T05:18:19.996Z,0.40
2023-11-07T05:20:47.136Z,0.60
2023-11-07T05:23:14.228Z,0.60
2023-11-07T05:25:41.202Z,0.52
2023-11-07T05:28:08.124Z,0.55
2023-11-07T05:30:35.318Z,0.50
2023-11-07T05:33:02.353Z,0.75
2023-11-07T05:35:29.551Z,0.60
2023-11-07T05:37:57.190Z,0.50
2023-11-07T05:40:25.423Z,0.40
2023-11-07T05:42:55.922Z,0.70
2023-11-07T05:45:23.120Z,0.80
2023-11-07T05:47:50.236Z,0.70
2023-11-07T05:50:17.379Z,0.50
2023-11-07T05:52:45.531Z,0.60
2023-11-07T05:55:13.260Z,0.50
2023-11-07T05:57:40.505Z,0.47
2023-11-07T06:00:09.369Z,0.70
2023-11-07T06:02:39.467Z,0.80
2023-11-07T06:05:10.473Z,0.93
2023-11-07T06:07:37.654Z,0.70
2023-11-07T06:10:05.735Z,0.80
2023-11-07T06:12:32.620Z,0.57
2023-11-07T06:14:59.533Z,0.75
2023-11-07T06:17:26.646Z,0.52
2023-11-07T06:19:53.582Z,1.15
2023-11-07T06:22:20.543Z,0.70
2023-11-07T06:24:47.528Z,0.70
2023-11-07T06:27:14.619Z,0.73
2023-11-07T06:29:44.120Z,0.52
2023-11-07T06:32:11.493Z,1.05
2023-11-07T06:34:38.741Z,0.75
2023-11-07T06:37:09.165Z,0.75
2023-11-07T06:39:36.111Z,1.05
2023-11-07T06:42:03.844Z,0.95
2023-11-07T06:44:30.926Z,1.10
2023-11-07T06:46:58.010Z,1.08
2023-11-07T06:49:25.663Z,1.20
2023-11-07T06:51:52.783Z,1.25
2023-11-07T06:54:19.892Z,0.80
2023-11-07T06:56:48.218Z,0.80
2023-11-07T06:59:15.293Z,0.90
2023-11-07T07:01:45.428Z,0.80
2023-11-07T07:04:12.622Z,0.98
2023-11-07T07:06:39.702Z,0.80
2023-11-07T07:09:06.915Z,1.00
2023-11-07T07:11:33.942Z,1.00
2023-11-07T07:14:00.985Z,0.90
2023-11-07T07:16:31.653Z,1.10
2023-11-07T07:18:58.804Z,0.90
2023-11-07T07:21:26.453Z,0.90
2023-11-07T07:23:53.850Z,1.10
2023-11-07T07:26:22.765Z,0.73
2023-11-07T07:28:53.213Z,0.80
2023-11-07T07:31:28.493Z,1.13
2023-11-07T07:33:57.868Z,1.00
2023-11-07T07:36:25.087Z,0.90
2023-11-07T07:38:53.936Z,0.73
2023-11-07T07:41:21.896Z,0.70
2023-11-07T07:43:48.964Z,0.60
2023-11-07T07:46:19.020Z,0.60
2023-11-07T07:48:47.032Z,0.60
2023-11-07T07:51:17.780Z,0.70
2023-11-07T07:53:46.209Z,0.93
2023-11-07T07:56:14.926Z,0.60
2023-11-07T07:58:43.772Z,0.80
2023-11-07T08:01:11.258Z,0.75
2023-11-07T08:03:39.711Z,0.80
2023-11-07T08:06:07.415Z,0.63
2023-11-07T08:08:35.067Z,0.65
2023-11-07T08:11:02.326Z,0.63
2023-11-07T08:13:30.279Z,0.73
2023-11-07T08:15:57.251Z,0.75
2023-11-07T08:18:24.512Z,0.60
2023-11-07T08:20:51.815Z,0.70
2023-11-07T08:23:19.247Z,0.82
2023-11-07T08:25:46.196Z,0.70
2023-11-07T08:28:14.016Z,0.60
2023-11-07T08:30:45.435Z,0.60
2023-11-07T08:33:14.098Z,0.70
2023-11-07T08:35:41.416Z,0.60
2023-11-07T08:38:08.499Z,0.70
2023-11-07T08:40:36.740Z,0.60
2023-11-07T08:43:04.427Z,0.65
2023-11-07T08:45:34.114Z,0.65
2023-11-07T08:48:01.639Z,0.43
2023-11-07T08:50:28.610Z,0.60
2023-11-07T08:52:57.746Z,0.50
2023-11-07T08:55:27.034Z,0.40
2023-11-07T08:57:54.975Z,0.90
2023-11-07T09:00:28.238Z,0.77
2023-11-07T09:02:55.791Z,0.52
2023-11-07T09:05:23.730Z,0.82
2023-11-07T09:07:51.527Z,0.50
2023-11-07T09:10:21.311Z,0.70
2023-11-07T09:12:48.727Z,0.52
2023-11-07T09:15:15.878Z,0.45
2023-11-07T09:17:44.073Z,0.35
2023-11-07T09:20:13.201Z,0.50
2023-11-07T09:22:42.414Z,0.73
2023-11-07T09:25:10.694Z,0.50
2023-11-07T09:27:40.484Z,0.55
2023-11-07T09:30:12.849Z,0.60
2023-11-07T09:32:43.262Z,0.55
2023-11-07T09:35:11.002Z,0.30
2023-11-07T09:37:41.338Z,0.52
2023-11-07T09:40:22.024Z,0.40
2023-11-07T09:42:52.164Z,0.90
2023-11-07T09:45:20.585Z,0.30
2023-11-07T09:47:49.592Z,0.43
2023-11-07T09:50:21.737Z,0.40
2023-11-07T09:52:50.591Z,0.40
2023-11-07T09:55:18.223Z,0.38
2023-11-07T09:58:12.494Z,0.30
2023-11-07T10:00:47.115Z,0.57
2023-11-07T10:03:16.203Z,0.40
2023-11-07T10:05:45.015Z,0.13
2023-11-07T10:08:11.986Z,0.35
2023-11-07T10:10:40.772Z,0.30
2023-11-07T10:13:09.612Z,0.10
2023-11-07T10:15:37.290Z,0.28
2023-11-07T10:18:12.699Z,0.30
2023-11-07T10:20:56.135Z,0.93
2023-11-07T10:23:23.720Z,0.30
2023-11-07T10:25:51.715Z,0.20
2023-11-07T10:28:22.386Z,0.20
2023-11-07T10:30:50.791Z,0.30
2023-11-07T10:33:38.010Z,0.28
2023-11-07T10:36:05.348Z,0.10
2023-11-07T10:38:39.685Z,0.20
2023-11-07T10:41:06.848Z,0.20
2023-11-07T10:43:41.398Z,0.45
2023-11-07T10:46:10.496Z,0.45
2023-11-07T10:48:42.292Z,0.25
2023-11-07T10:51:14.730Z,0.30
2023-11-07T10:53:43.140Z,0.13
2023-11-07T10:56:15.223Z,0.30
2023-11-07T10:58:53.446Z,0.35
2023-11-07T11:01:23.894Z,0.65
2023-11-07T11:03:53.684Z,0.13
2023-11-07T11:06:25.766Z,0.20
2023-11-07T11:08:58.444Z,0.30
2023-11-07T11:11:28.090Z,0.15
2023-11-07T11:13:56.850Z,0.25
2023-11-07T11:16:25.270Z,0.20
2023-11-07T11:18:57.886Z,0.30
2023-11-07T11:22:18.281Z,0.20
2023-11-07T11:25:16.051Z,0.77
2023-11-07T11:27:54.254Z,0.28
2023-11-07T11:30:28.755Z,0.22
2023-11-07T11:33:07.228Z,0.28
2023-11-07T11:35:36.879Z,0.30
2023-11-07T11:38:24.868Z,0.17
2023-11-07T11:41:01.271Z,0.15
2023-11-07T11:43:30.223Z,0.22
2023-11-07T11:46:01.464Z,0.17
2023-11-07T11:48:51.928Z,0.25
2023-11-07T11:51:33.775Z,0.50
2023-11-07T11:54:01.487Z,0.20
2023-11-07T11:56:29.571Z,0.28
2023-11-07T11:59:06.615Z,0.40
2023-11-07T12:01:51.037Z,0.20
2023-11-07T12:04:37.454Z,0.40
2023-11-07T12:07:10.696Z,0.57
2023-11-07T12:12:07.312Z,0.40
2023-11-07T12:14:35.165Z,0.10
2023-11-07T12:17:02.586Z,0.30
2023-11-07T12:19:31.237Z,0.10
2023-11-07T12:21:59.207Z,0.20
2023-11-07T12:24:26.623Z,0.10
2023-11-07T12:26:53.979Z,0.20
2023-11-07T12:29:31.041Z,0.10
2023-11-07T12:31:58.347Z,0.20
2023-11-07T12:34:40.519Z,0.15
2023-11-07T12:37:11.247Z,0.20
2023-11-07T12:39:41.826Z,0.10
2023-11-07T12:42:12.320Z,0.35
2023-11-07T12:44:42.569Z,0.20
2023-11-07T12:47:10.692Z,0.20
2023-11-07T12:49:44.979Z,0.20
2023-11-07T12:52:12.852Z,0.40
2023-11-07T12:54:40.659Z,0.30
2023-11-07T12:57:07.686Z,0.30
2023-11-07T12:59:35.823Z,0.38
2023-11-07T13:02:04.449Z,0.22
2023-11-07T13:04:34.368Z,0.50
2023-11-07T13:07:01.925Z,0.82
2023-11-07T13:09:32.466Z,0.30
2023-11-07T13:12:20.411Z,0.30
2023-11-07T13:14:50.483Z,0.20
2023-11-07T13:17:17.644Z,0.10
2023-11-07T13:19:44.628Z,0.10
2023-11-07T13:22:13.838Z,0.22
2023-11-07T13:24:40.776Z,0.20
2023-11-07T13:27:07.741Z,0.17
2023-11-07T13:29:34.690Z,0.20
2023-11-07T13:32:01.639Z,0.15
2023-11-07T13:34:28.679Z,0.20
2023-11-07T13:36:56.427Z,0.20
2023-11-07T13:39:25.078Z,0.22
2023-11-07T13:41:52.402Z,0.17
2023-11-07T13:44:19.307Z,0.30
2023-11-07T13:46:48.028Z,0.30
2023-11-07T13:49:15.494Z,0.20
2023-11-07T13:51:43.729Z,0.08
2023-11-07T13:54:10.883Z,0.10
2023-11-07T13:56:37.898Z,0.10
2023-11-07T13:59:06.429Z,0.20
2023-11-07T14:01:37.814Z,0.13
2023-11-07T14:04:10.626Z,0.10
2023-11-07T14:06:37.896Z,0.15
2023-11-07T14:09:06.020Z,0.30
2023-11-07T14:11:34.738Z,0.57
2023-11-07T14:14:01.747Z,0.63
2023-11-07T14:16:28.693Z,1.80
2023-11-07T14:18:55.978Z,0.50
2023-11-07T14:21:23.069Z,0.30
2023-11-07T14:23:50.190Z,0.17
2023-11-07T14:26:17.655Z,0.30
2023-11-07T14:31:14.542Z,0.30
2023-11-07T14:33:41.546Z,0.20
2023-11-07T14:36:08.890Z,0.22
2023-11-07T14:38:37.683Z,0.40
2023-11-07T14:41:08.765Z,0.30
2023-11-07T14:43:36.193Z,0.20
2023-11-07T14:46:04.559Z,0.20
2023-11-07T14:48:31.856Z,0.30
2023-11-07T14:50:59.082Z,0.30
2023-11-07T14:53:26.680Z,0.30
2023-11-07T14:55:56.645Z,0.28
2023-11-07T14:58:25.884Z,0.57
2023-11-07T15:00:55.434Z,0.43
2023-11-07T15:03:23.778Z,1.02
2023-11-07T15:05:52.989Z,1.00
2023-11-07T15:08:20.916Z,0.30
2023-11-07T15:10:48.128Z,0.32
2023-11-07T15:13:15.018Z,1.05
2023-11-07T15:15:42.164Z,0.80
2023-11-07T15:18:11.545Z,0.77
2023-11-07T15:20:41.570Z,0.50
2023-11-07T15:23:09.473Z,0.40
2023-11-07T15:25:38.025Z,0.68
2023-11-07T15:28:05.348Z,0.50
2023-11-07T15:30:33.409Z,0.55
2023-11-07T15:33:02.558Z,0.40
2023-11-07T15:35:36.536Z,0.47
2023-11-07T15:38:07.149Z,0.50
2023-11-07T15:40:34.622Z,1.13
2023-11-07T15:43:01.572Z,1.70
2023-11-07T15:45:31.560Z,0.88
2023-11-07T15:47:59.924Z,0.40
2023-11-07T15:50:28.341Z,0.77
2023-11-07T15:53:06.558Z,0.70
2023-11-07T15:55:38.497Z,0.43
2023-11-07T15:58:05.710Z,0.55
2023-11-07T16:00:34.408Z,0.63
2023-11-07T16:03:01.832Z,0.73
2023-11-07T16:05:33.784Z,0.50
2023-11-07T16:08:01.272Z,0.50
2023-11-07T16:10:28.256Z,0.40
2023-11-07T16:12:55.440Z,0.30
2023-11-07T16:15:23.078Z,0.70
2023-11-07T16:17:52.510Z,0.40
2023-11-07T16:20:20.892Z,0.28
2023-11-07T16:22:48.177Z,0.50
2023-11-07T16:25:17.091Z,0.45
2023-11-07T16:27:44.429Z,0.40
2023-11-07T16:30:12.385Z,1.15
2023-11-07T16:32:39.879Z,0.77
2023-11-07T16:35:07.314Z,1.00
2023-11-07T16:37:39.186Z,0.98
2023-11-07T16:40:09.563Z,0.70
2023-11-07T16:42:37.128Z,0.70
2023-11-07T16:45:06.433Z,0.60
2023-11-07T16:47:34.244Z,0.73
2023-11-07T16:50:02.095Z,0.73
2023-11-07T16:52:30.259Z,0.50
2023-11-07T16:54:57.303Z,0.47
2023-11-07T16:57:24.377Z,1.60
2023-11-07T16:59:52.664Z,1.48
2023-11-07T17:02:20.306Z,1.08
2023-11-07T17:04:48.039Z,0.60
2023-11-07T17:07:15.347Z,0.43
2023-11-07T17:09:42.778Z,0.75
2023-11-07T17:12:09.989Z,1.73
2023-11-07T17:14:38.595Z,0.70
2023-11-07T17:17:06.477Z,0.70
2023-11-07T17:19:33.741Z,0.52
2023-11-07T17:22:01.365Z,0.50
2023-11-07T17:24:28.977Z,0.77
2023-11-07T17:26:56.904Z,0.60
2023-11-07T17:29:24.150Z,0.70
2023-11-07T17:31:52.718Z,0.50
2023-11-07T17:34:20.376Z,0.50
2023-11-07T17:36:47.990Z,0.65
2023-11-07T17:39:18.896Z,0.60
2023-11-07T17:41:46.751Z,0.60
2023-11-07T17:44:19.158Z,0.95
2023-11-07T17:46:46.455Z,0.70
2023-11-07T17:49:16.222Z,1.00
2023-11-07T17:51:47.099Z,1.08
2023-11-07T17:54:14.314Z,0.68
2023-11-07T17:56:41.568Z,0.75
2023-11-07T17:59:12.739Z,1.00
2023-11-07T18:01:42.822Z,0.88
2023-11-07T18:04:12.064Z,0.80
2023-11-07T18:06:41.628Z,1.30
2023-11-07T18:09:14.227Z,0.88
2023-11-07T18:11:42.125Z,0.82
2023-11-07T18:14:12.918Z,1.50
2023-11-07T18:16:39.873Z,0.85
2023-11-07T18:19:07.061Z,0.80
2023-11-07T18:21:43.148Z,0.98
2023-11-07T18:24:11.413Z,0.82
2023-11-07T18:26:39.261Z,0.63
2023-11-07T18:29:06.183Z,0.88
2023-11-07T18:31:33.212Z,1.17
2023-11-07T18:34:09.374Z,0.75
2023-11-07T18:39:30.545Z,0.57
2023-11-07T18:41:58.253Z,0.88
2023-11-07T18:44:31.651Z,1.02
2023-11-07T18:47:01.955Z,1.35
2023-11-07T18:49:35.365Z,0.65
2023-11-07T18:52:04.001Z,1.20
2023-11-07T18:54:33.483Z,1.60
2023-11-07T18:57:00.865Z,1.20
2023-11-07T18:59:34.752Z,0.80
2023-11-07T19:02:06.794Z,1.08
2023-11-07T19:04:39.125Z,0.63
2023-11-07T19:07:14.040Z,0.95
2023-11-07T19:09:41.275Z,0.70
2023-11-07T19:12:08.933Z,0.82
2023-11-07T19:14:40.373Z,0.77
2023-11-07T19:17:08.232Z,1.08
2023-11-07T19:19:40.089Z,1.08
2023-11-07T19:22:07.181Z,1.25
2023-11-07T19:24:34.421Z,1.13
2023-11-07T19:27:03.982Z,1.33
2023-11-07T19:29:30.963Z,1.10
2023-11-07T19:31:58.138Z,0.85
2023-11-07T19:34:28.312Z,0.90
2023-11-07T19:36:56.903Z,1.10
2023-11-07T19:39:30.834Z,0.82
2023-11-07T19:42:05.717Z,1.00
2023-11-07T19:44:34.985Z,1.20
2023-11-07T19:47:01.959Z,1.13
2023-11-07T19:49:30.177Z,1.08
2023-11-07T19:51:59.286Z,1.42
2023-11-07T19:54:27.266Z,1.30
2023-11-07T19:56:55.397Z,1.27
2023-11-07T19:59:22.890Z,1.20
2023-11-07T20:01:50.051Z,1.00
2023-11-07T20:04:20.038Z,1.13
2023-11-07T20:06:48.860Z,1.00
2023-11-07T20:09:19.542Z,0.85
2023-11-07T20:11:47.696Z,1.30
2023-11-07T20:14:14.901Z,1.25
2023-11-07T20:16:45.213Z,1.20
2023-11-07T20:19:12.301Z,1.55
2023-11-07T20:21:39.556Z,1.60
2023-11-07T20:24:07.412Z,1.20
2023-11-07T20:26:34.527Z,1.20
2023-11-07T20:29:01.618Z,1.02
2023-11-07T20:31:29.161Z,1.10
2023-11-07T20:33:57.267Z,1.30
2023-11-07T20:36:24.459Z,1.10
2023-11-07T20:38:54.979Z,0.80
2023-11-07T20:41:22.828Z,0.90
2023-11-07T20:43:55.528Z,1.02
2023-11-07T20:46:32.895Z,0.90
2023-11-07T20:49:03.795Z,1.58
2023-11-07T20:51:33.716Z,1.38
2023-11-07T20:54:00.892Z,1.13
2023-11-07T20:56:30.717Z,1.00
2023-11-07T20:59:00.562Z,0.90
2023-11-07T21:01:28.045Z,1.13
2023-11-07T21:03:57.238Z,1.00
2023-11-07T21:06:24.975Z,0.98
2023-11-07T21:08:52.762Z,1.27
2023-11-07T21:11:25.519Z,1.48
2023-11-07T21:13:53.477Z,1.13
2023-11-07T21:16:21.618Z,1.15
2023-11-07T21:18:51.009Z,1.17
2023-11-07T21:21:18.330Z,1.23
2023-11-07T21:23:50.291Z,1.00
2023-11-07T21:26:17.587Z,1.30
2023-11-07T21:28:45.941Z,1.70
2023-11-07T21:31:15.761Z,1.15
2023-11-07T21:33:42.927Z,1.10
2023-11-07T21:36:12.073Z,1.25
2023-11-07T21:38:39.358Z,1.08
2023-11-07T21:41:06.904Z,1.42
2023-11-07T21:43:34.521Z,0.95
2023-11-07T21:46:01.792Z,1.38
2023-11-07T21:48:29.335Z,1.13
2023-11-07T21:50:57.034Z,1.15
2023-11-07T21:53:25.544Z,1.25
2023-11-07T21:55:54.033Z,1.48
2023-11-07T21:58:20.936Z,2.00
2023-11-07T22:00:48.193Z,1.50
2023-11-07T22:03:15.234Z,1.50
2023-11-07T22:05:42.650Z,1.40
2023-11-07T22:08:09.687Z,1.13
2023-11-07T22:10:38.397Z,1.30
2023-11-07T22:13:05.405Z,1.10
2023-11-07T22:15:33.452Z,1.38
2023-11-07T22:18:02.490Z,1.10
2023-11-07T22:20:29.741Z,1.85
2023-11-07T22:22:56.893Z,1.60
2023-11-07T22:25:23.817Z,1.42
2023-11-07T22:27:50.884Z,1.30
2023-11-07T22:30:18.124Z,1.35
2023-11-07T22:32:45.555Z,1.33
2023-11-07T22:35:13.699Z,1.17
2023-11-07T22:37:40.629Z,1.35
2023-11-07T22:40:08.485Z,1.85
2023-11-07T22:42:38.306Z,1.48
2023-11-07T22:45:05.716Z,1.33
2023-11-07T22:47:32.829Z,1.52
2023-11-07T22:50:00.490Z,1.55
2023-11-07T22:52:27.593Z,1.33
2023-11-07T22:54:54.449Z,1.40
2023-11-07T22:57:21.632Z,1.10
2023-11-07T22:59:48.827Z,1.40
2023-11-07T23:02:15.764Z,1.63
2023-11-07T23:04:42.895Z,1.10
2023-11-07T23:07:10.256Z,1.33
2023-11-07T23:09:37.461Z,1.02
2023-11-07T23:12:04.838Z,1.20
2023-11-07T23:14:34.467Z,1.02
2023-11-07T23:17:01.468Z,0.77
2023-11-07T23:19:28.403Z,1.30
2023-11-07T23:21:55.361Z,1.20
2023-11-07T23:24:22.321Z,0.90
2023-11-07T23:26:49.339Z,1.20
2023-11-07T23:29:18.301Z,0.93
2023-11-07T23:31:45.456Z,0.70
2023-11-07T23:34:12.639Z,1.05
2023-11-07T23:36:39.688Z,0.80
2023-11-07T23:39:06.666Z,1.02
2023-11-07T23:41:33.622Z,0.85
2023-11-07T23:44:00.943Z,0.90
2023-11-07T23:46:27.910Z,1.30
2023-11-07T23:48:55.024Z,1.25
2023-11-07T23:51:22.069Z,1.02
2023-11-07T23:53:49.015Z,0.93
2023-11-07T23:56:15.924Z,1.50
2023-11-07T23:58:44.249Z,1.08
